Time;durP1;ratioP1;P1;durP2;ratioP2;P2;SDS_P1;SDS_P2;PMS_P1;PMS_P2;Temp;Humidity;BMP_temperature;BMP_pressure;BME280_temperature;BME280_humidity;BME280_pressure;Samples;Min_cycle;Max_cycle;Signal;HPM_P1;HPM_P2
2023/01/26 00:01:16;;;;;;;28.27;11.68;;;0.70;99.90;;;;;;5103887;28;20055;-80
2023/01/26 00:03:42;;;;;;;25.88;11.55;;;0.70;99.90;;;;;;5104730;28;20047;-80
2023/01/26 00:06:11;;;;;;;24.02;11.27;;;0.70;99.90;;;;;;5068549;28;20047;-80
2023/01/26 00:08:49;;;;;;;26.30;11.60;;;0.70;99.90;;;;;;5105385;28;20082;-81
2023/01/26 00:11:18;;;;;;;23.48;11.43;;;0.60;99.90;;;;;;5085698;28;20073;-80
2023/01/26 00:13:43;;;;;;;26.02;12.02;;;0.70;99.90;;;;;;5087194;28;20051;-79
2023/01/26 00:16:12;;;;;;;23.98;10.18;;;0.70;99.90;;;;;;5103417;28;20395;-80
2023/01/26 00:18:39;;;;;;;24.80;11.05;;;1.70;99.90;;;;;;5102754;28;20136;-80
2023/01/26 00:21:11;;;;;;;25.88;11.80;;;0.70;99.90;;;;;;5088405;28;20508;-81
2023/01/26 00:23:37;;;;;;;27.30;11.77;;;0.60;99.90;;;;;;5102255;28;20040;-80
2023/01/26 00:26:06;;;;;;;22.13;10.27;;;0.60;99.90;;;;;;5104885;28;20051;-81
2023/01/26 00:28:31;;;;;;;24.40;11.07;;;0.70;99.90;;;;;;5103112;28;20087;-80
2023/01/26 00:31:12;;;;;;;24.63;10.55;;;1.40;99.90;;;;;;5087513;28;20078;-81
2023/01/26 00:33:38;;;;;;;23.02;10.70;;;0.70;99.90;;;;;;5104768;28;20102;-81
2023/01/26 00:36:05;;;;;;;25.42;11.10;;;0.70;99.90;;;;;;5106342;28;20083;-81
2023/01/26 00:38:30;;;;;;;24.33;11.55;;;0.60;99.90;;;;;;5091839;28;20047;-81
2023/01/26 00:40:56;;;;;;;27.42;12.10;;;0.70;99.90;;;;;;5089203;28;20405;-80
2023/01/26 00:43:22;;;;;;;26.70;12.65;;;0.70;99.90;;;;;;5108725;28;20159;-81
2023/01/26 00:45:47;;;;;;;29.05;11.93;;;1.80;99.90;;;;;;5073049;28;20047;-80
2023/01/26 00:48:13;;;;;;;23.10;10.68;;;0.70;99.90;;;;;;5074563;28;20091;-80
2023/01/26 00:50:39;;;;;;;33.00;12.95;;;0.70;99.90;;;;;;5098511;28;20071;-80
2023/01/26 00:53:05;;;;;;;28.60;11.77;;;1.80;99.90;;;;;;5115285;28;20043;-80
2023/01/26 00:55:33;;;;;;;27.10;12.50;;;0.90;99.90;;;;;;5097552;28;20106;-81
2023/01/26 00:58:04;;;;;;;29.50;11.50;;;0.70;99.90;;;;;;5091388;28;20043;-81
2023/01/26 01:00:33;;;;;;;26.35;12.18;;;0.40;99.90;;;;;;5075370;28;20040;-81
2023/01/26 01:02:59;;;;;;;28.42;12.98;;;0.70;99.90;;;;;;5107122;28;20047;-81
2023/01/26 01:05:27;;;;;;;25.10;11.20;;;0.70;99.90;;;;;;5107250;28;20383;-81
2023/01/26 01:07:53;;;;;;;29.30;12.90;;;0.70;99.90;;;;;;5107630;28;20057;-81
2023/01/26 01:10:19;;;;;;;36.95;14.25;;;0.80;99.90;;;;;;5106189;28;20437;-81
2023/01/26 01:12:45;;;;;;;26.20;12.02;;;0.70;99.90;;;;;;5074122;28;20039;-81
2023/01/26 01:15:10;;;;;;;24.13;10.82;;;0.80;99.90;;;;;;5088714;28;20048;-81
2023/01/26 01:17:37;;;;;;;26.35;11.82;;;0.80;99.90;;;;;;5090423;28;20448;-80
2023/01/26 01:20:04;;;;;;;26.75;11.45;;;0.80;99.90;;;;;;5105797;28;20043;-81
2023/01/26 01:22:31;;;;;;;29.33;12.07;;;0.70;99.90;;;;;;5089850;28;20083;-81
2023/01/26 01:24:58;;;;;;;31.50;13.45;;;0.80;99.90;;;;;;5073391;28;20039;-81
2023/01/26 01:27:24;;;;;;;24.38;10.82;;;0.80;99.90;;;;;;5105217;28;20051;-81
2023/01/26 01:29:50;;;;;;;32.13;12.35;;;0.80;99.90;;;;;;5108497;28;20040;-81
2023/01/26 01:32:17;;;;;;;26.38;11.68;;;0.80;99.90;;;;;;5105420;28;20043;-81
2023/01/26 01:34:46;;;;;;;27.13;12.25;;;2.10;99.90;;;;;;5107528;28;20419;-81
2023/01/26 01:37:11;;;;;;;29.25;10.80;;;1.30;99.90;;;;;;5089141;28;20054;-81
2023/01/26 01:39:37;;;;;;;23.33;10.85;;;1.50;99.90;;;;;;5072678;28;20040;-81
2023/01/26 01:42:03;;;;;;;23.95;10.55;;;0.80;99.90;;;;;;5090211;28;20184;-81
2023/01/26 01:44:28;;;;;;;25.23;11.48;;;0.80;99.90;;;;;;5088744;28;20048;-81
2023/01/26 01:46:59;;;;;;;26.98;10.50;;;0.80;99.90;;;;;;5089733;28;20477;-81
2023/01/26 01:49:32;;;;;;;28.40;10.93;;;0.80;99.90;;;;;;5087539;28;20088;-81
2023/01/26 01:52:01;;;;;;;;;;;0.80;99.90;;;;;;5107498;28;20130;-81
2023/01/26 01:54:53;;;;;;;20.23;9.82;;;0.90;99.90;;;;;;5088819;28;19966;-81
2023/01/26 01:57:30;;;;;;;22.77;9.88;;;0.90;99.90;;;;;;5105466;28;20138;-81
2023/01/26 02:00:04;;;;;;;21.20;9.43;;;0.90;99.90;;;;;;5107199;28;20116;-81
2023/01/26 02:02:30;;;;;;;20.58;9.73;;;0.90;99.90;;;;;;5087502;28;20070;-81
2023/01/26 02:05:02;;;;;;;19.98;9.15;;;0.90;99.90;;;;;;5072683;28;20047;-81
2023/01/26 02:07:30;;;;;;;14.70;7.83;;;2.10;99.90;;;;;;5105685;28;20114;-81
2023/01/26 02:12:41;;;;;;;23.88;9.75;;;0.90;99.90;;;;;;5106670;28;20105;-81
2023/01/26 02:15:07;;;;;;;24.30;10.00;;;2.20;99.90;;;;;;5087160;28;20050;-81
2023/01/26 02:17:33;;;;;;;21.80;9.20;;;0.90;99.90;;;;;;5078664;28;20081;-81
2023/01/26 02:20:07;;;;;;;23.55;10.00;;;2.00;99.90;;;;;;5104502;28;20418;-81
2023/01/26 02:22:32;;;;;;;23.65;9.48;;;0.90;99.90;;;;;;5105875;28;20054;-82
2023/01/26 02:25:05;;;;;;;23.20;9.90;;;1.00;99.90;;;;;;5088950;28;20047;-81
2023/01/26 02:27:31;;;;;;;22.13;10.10;;;1.00;99.90;;;;;;5104097;28;20043;-81
2023/01/26 02:29:58;;;;;;;21.70;9.68;;;2.20;99.90;;;;;;5106349;28;20062;-81
2023/01/26 02:32:24;;;;;;;20.40;8.45;;;1.00;99.90;;;;;;5070110;28;20036;-81
2023/01/26 02:34:56;;;;;;;24.75;10.30;;;1.00;99.90;;;;;;5089524;28;20051;-81
2023/01/26 02:37:22;;;;;;;23.40;10.03;;;1.00;99.90;;;;;;5104672;28;20074;-81
2023/01/26 02:39:52;;;;;;;21.08;9.75;;;1.60;99.90;;;;;;5088695;28;20075;-80
2023/01/26 02:45:02;;;;;;;22.38;9.20;;;1.10;99.90;;;;;;5089187;28;20054;-81
2023/01/26 02:47:28;;;;;;;28.40;9.93;;;1.10;99.90;;;;;;5089782;28;20036;-81
2023/01/26 02:49:54;;;;;;;19.55;9.27;;;1.60;99.90;;;;;;5070060;28;20051;-81
2023/01/26 02:52:27;;;;;;;20.10;8.45;;;1.90;99.90;;;;;;5088266;28;20051;-81
2023/01/26 02:57:39;;;;;;;21.40;9.38;;;1.20;99.90;;;;;;5103395;28;20268;-81
2023/01/26 03:00:09;;;;;;;24.55;11.13;;;2.10;99.90;;;;;;5106148;28;20054;-81
2023/01/26 03:02:34;;;;;;;21.80;10.60;;;1.20;99.90;;;;;;5086828;28;20411;-81
2023/01/26 03:05:00;;;;;;;23.20;10.57;;;1.20;99.90;;;;;;5088243;28;20044;-82
2023/01/26 03:07:26;;;;;;;22.00;9.73;;;1.20;99.90;;;;;;5070961;28;20047;-81
2023/01/26 03:09:54;;;;;;;22.20;10.45;;;1.50;99.90;;;;;;5070534;28;20044;-81
2023/01/26 03:12:20;;;;;;;27.65;10.60;;;1.20;99.90;;;;;;5089331;28;20075;-81
2023/01/26 03:15:33;;;;;;;25.17;10.45;;;1.20;99.90;;;;;;5103720;28;20518;-80
2023/01/26 03:17:31;;;;;;;21.10;10.13;;;1.00;99.90;;;;;;5091183;28;20090;-81
2023/01/26 03:28:09;;;;;;;21.55;9.77;;;1.30;99.90;;;;;;5103729;28;20406;-81
2023/01/26 03:30:35;;;;;;;23.05;9.68;;;2.00;99.90;;;;;;5105306;28;20135;-81
2023/01/26 03:33:00;;;;;;;23.23;9.60;;;1.30;99.90;;;;;;5086707;28;20070;-81
2023/01/26 03:35:26;;;;;;;23.13;10.10;;;1.30;99.90;;;;;;5104353;28;20054;-82
2023/01/26 03:37:53;;;;;;;21.80;10.40;;;1.30;99.90;;;;;;5088296;28;20058;-81
2023/01/26 03:56:54;;;;;;;24.30;10.00;;;1.40;99.90;;;;;;5103802;28;20043;-81
2023/01/26 03:59:36;;;;;;;22.17;9.85;;;1.40;99.90;;;;;;5071662;28;20040;-81
2023/01/26 04:10:19;;;;;;;22.85;10.30;;;1.50;99.90;;;;;;5115781;28;20160;-81
2023/01/26 04:23:41;;;;;;;27.90;11.15;;;1.60;99.90;;;;;;5094717;28;20059;-81
2023/01/26 04:26:07;;;;;;;27.17;11.55;;;1.60;99.90;;;;;;5094367;28;20039;-81
2023/01/26 04:28:34;;;;;;;30.13;11.10;;;1.60;99.90;;;;;;5109252;28;20045;-81
2023/01/26 04:31:03;;;;;;;32.03;10.70;;;2.50;99.90;;;;;;5094483;28;20058;-80
2023/01/26 04:33:29;;;;;;;30.02;11.73;;;2.80;99.90;;;;;;5093692;28;20048;-81
2023/01/26 04:35:55;;;;;;;29.35;11.18;;;3.00;99.90;;;;;;5109440;28;20126;-82
2023/01/26 04:38:20;;;;;;;34.88;13.15;;;1.70;99.90;;;;;;5111410;28;20048;-81
2023/01/26 04:40:53;;;;;;;32.92;12.80;;;2.30;99.90;;;;;;5091728;28;20124;-81
2023/01/26 04:43:18;;;;;;;22.13;8.80;;;1.80;99.90;;;;;;5111897;28;20115;-81
2023/01/26 04:45:44;;;;;;;35.60;13.13;;;1.80;99.90;;;;;;5075009;28;20625;-81
2023/01/26 04:48:09;;;;;;;35.08;13.05;;;2.40;99.90;;;;;;5093338;28;20047;-81
2023/01/26 04:50:35;;;;;;;39.63;12.77;;;1.80;99.90;;;;;;5076303;28;20075;-80
2023/01/26 04:53:01;;;;;;;32.58;12.95;;;1.80;99.90;;;;;;5075335;28;20503;-81
2023/01/26 04:55:27;;;;;;;35.63;12.32;;;1.80;99.90;;;;;;5077080;28;20046;-81
2023/01/26 04:57:52;;;;;;;32.28;12.40;;;2.80;99.90;;;;;;5074651;28;20047;-81
2023/01/26 05:00:18;;;;;;;35.08;11.18;;;2.90;99.90;;;;;;5094500;28;20051;-81
2023/01/26 05:02:44;;;;;;;37.95;13.93;;;1.90;99.90;;;;;;5074765;28;20086;-81
2023/01/26 05:05:10;;;;;;;42.10;13.38;;;2.00;99.90;;;;;;5110601;28;20567;-82
2023/01/26 05:07:35;;;;;;;38.17;12.32;;;2.00;99.90;;;;;;5093345;28;20036;-82
2023/01/26 05:10:01;;;;;;;39.65;14.18;;;2.10;99.90;;;;;;5092649;28;20040;-82
2023/01/26 05:12:32;;;;;;;43.22;14.40;;;2.10;99.90;;;;;;5110744;28;20045;-82
2023/01/26 05:14:58;;;;;;;33.10;11.80;;;2.40;99.90;;;;;;5108762;28;20048;-82
2023/01/26 05:17:24;;;;;;;36.45;12.27;;;2.20;99.90;;;;;;5093761;28;20067;-83
2023/01/26 05:19:49;;;;;;;38.83;13.20;;;2.20;99.90;;;;;;5091862;28;20048;-83
2023/01/26 05:22:15;;;;;;;43.35;12.98;;;2.60;99.90;;;;;;5106385;28;20051;-84
2023/01/26 05:24:41;;;;;;;37.83;13.25;;;2.30;99.90;;;;;;5089608;28;20060;-85
2023/01/26 05:27:21;;;;;;;45.13;12.98;;;2.30;99.90;;;;;;5106245;28;20039;-84
2023/01/26 05:29:48;;;;;;;40.13;12.15;;;2.40;99.90;;;;;;5090981;28;20039;-86
2023/01/26 05:32:15;;;;;;;33.42;11.98;;;3.50;99.90;;;;;;5105058;28;20047;-85
2023/01/26 05:34:41;;;;;;;39.47;12.48;;;2.40;99.90;;;;;;5074504;28;20383;-84
2023/01/26 05:37:07;;;;;;;34.20;11.48;;;2.50;99.90;;;;;;5071388;28;20050;-84
2023/01/26 05:39:32;;;;;;;41.22;12.32;;;2.50;99.90;;;;;;5056913;28;20047;-84
2023/01/26 05:41:58;;;;;;;41.05;12.43;;;2.60;99.90;;;;;;5106756;28;20538;-84
2023/01/26 05:44:24;;;;;;;37.78;10.85;;;2.70;99.90;;;;;;5088548;28;20070;-85
2023/01/26 05:46:50;;;;;;;39.22;12.70;;;3.30;99.90;;;;;;5107156;28;20101;-83
2023/01/26 05:49:16;;;;;;;41.53;11.60;;;2.60;99.90;;;;;;5054466;28;20039;-83
2023/01/26 05:51:42;;;;;;;50.47;10.88;;;2.60;99.90;;;;;;5073585;28;20043;-84
2023/01/26 05:54:08;;;;;;;33.83;9.15;;;2.80;99.90;;;;;;5087885;28;20058;-83
2023/01/26 05:56:33;;;;;;;41.35;9.80;;;2.70;99.90;;;;;;5106874;28;20050;-85
2023/01/26 05:58:59;;;;;;;39.17;8.98;;;3.80;99.90;;;;;;5088850;28;20046;-85
2023/01/26 06:01:24;;;;;;;26.65;8.65;;;2.70;99.90;;;;;;5072346;28;20154;-84
2023/01/26 06:03:50;;;;;;;39.75;9.32;;;2.70;99.90;;;;;;5072939;28;20062;-84
2023/01/26 06:06:16;;;;;;;34.40;9.93;;;3.90;99.90;;;;;;5071149;28;20126;-82
2023/01/26 06:08:42;;;;;;;37.45;8.38;;;1.70;99.90;;;;;;5090648;28;20514;-83
2023/01/26 06:11:07;;;;;;;39.72;8.80;;;2.80;99.90;;;;;;5086958;28;20055;-82
2023/01/26 06:13:33;;;;;;;35.03;7.68;;;2.80;99.90;;;;;;5073229;28;20048;-82
2023/01/26 06:16:02;;;;;;;34.40;6.70;;;2.80;99.90;;;;;;5088094;28;20421;-83
2023/01/26 06:18:27;;;;;;;33.72;5.38;;;2.80;99.90;;;;;;5105224;28;20059;-82
2023/01/26 06:20:58;;;;;;;37.78;5.65;;;2.90;99.90;;;;;;5089003;28;20122;-82
2023/01/26 06:23:23;;;;;;;47.45;6.50;;;3.50;99.90;;;;;;5086833;28;20054;-82
2023/01/26 06:25:50;;;;;;;26.10;4.30;;;3.40;99.90;;;;;;5089680;28;20436;-82
2023/01/26 06:28:16;;;;;;;37.97;4.28;;;3.10;99.90;;;;;;5104741;28;20592;-81
2023/01/26 06:30:42;;;;;;;39.97;4.60;;;4.50;99.90;;;;;;5106352;28;20075;-82
2023/01/26 06:33:08;;;;;;;42.78;4.45;;;3.40;99.90;;;;;;5087191;28;20192;-81
2023/01/26 06:35:35;;;;;;;43.17;3.10;;;3.50;99.90;;;;;;5107172;28;20047;-82
2023/01/26 06:38:00;;;;;;;30.42;4.50;;;3.50;99.90;;;;;;5088182;28;20039;-82
2023/01/26 06:40:26;;;;;;;39.88;4.35;;;4.80;99.90;;;;;;5103970;28;20044;-83
2023/01/26 06:42:52;;;;;;;32.47;3.88;;;4.70;99.90;;;;;;5089389;28;20050;-83
2023/01/26 06:45:19;;;;;;;29.40;3.55;;;3.10;99.90;;;;;;5069546;28;20358;-84
2023/01/26 06:47:49;;;;;;;22.42;4.10;;;3.70;99.90;;;;;;5106238;28;20112;-83
2023/01/26 06:50:19;;;;;;;29.63;4.93;;;3.80;99.90;;;;;;5103560;28;20079;-83
2023/01/26 06:52:55;;;;;;;45.67;3.78;;;3.80;99.90;;;;;;5089187;28;20130;-84
2023/01/26 06:55:34;;;;;;;34.63;3.90;;;4.50;99.90;;;;;;5072224;28;20441;-85
2023/01/26 06:58:00;;;;;;;34.38;3.42;;;4.10;99.90;;;;;;5103310;28;20049;-83
2023/01/26 07:00:25;;;;;;;42.17;3.72;;;3.80;99.90;;;;;;5106055;28;20122;-83
2023/01/26 07:02:51;;;;;;;42.05;4.40;;;4.10;99.90;;;;;;5069062;28;20097;-83
2023/01/26 07:05:17;;;;;;;36.53;3.58;;;3.60;99.90;;;;;;5088351;28;20044;-83
2023/01/26 07:07:45;;;;;;;41.13;3.95;;;3.50;99.90;;;;;;5086739;28;20086;-83
2023/01/26 07:10:11;;;;;;;34.90;3.80;;;4.80;99.90;;;;;;5087178;28;20043;-83
2023/01/26 07:12:43;;;;;;;31.15;3.65;;;3.40;99.90;;;;;;5087855;28;20439;-83
2023/01/26 07:15:10;;;;;;;33.63;3.95;;;3.30;99.90;;;;;;5086301;28;20079;-83
2023/01/26 07:17:39;;;;;;;31.70;5.88;;;3.10;99.90;;;;;;5088312;28;20042;-83
2023/01/26 07:20:05;;;;;;;24.73;4.10;;;3.20;99.90;;;;;;5086331;28;20116;-83
2023/01/26 07:22:31;;;;;;;25.90;4.50;;;3.00;99.90;;;;;;5071167;28;20043;-83
2023/01/26 07:24:57;;;;;;;28.55;5.45;;;3.00;99.90;;;;;;5069518;28;20040;-83
2023/01/26 07:27:22;;;;;;;39.67;4.63;;;2.00;99.90;;;;;;5104160;28;20047;-83
2023/01/26 07:29:50;;;;;;;43.40;3.95;;;3.00;99.90;;;;;;5088594;28;20051;-83
2023/01/26 07:32:16;;;;;;;31.15;3.35;;;2.90;99.90;;;;;;5086896;28;20043;-83
2023/01/26 07:34:42;;;;;;;26.05;3.65;;;3.00;99.90;;;;;;5105679;28;20055;-83
2023/01/26 07:37:07;;;;;;;28.42;3.30;;;2.90;99.90;;;;;;5068756;28;20482;-83
2023/01/26 07:39:33;;;;;;;30.20;3.92;;;3.00;99.90;;;;;;5105113;28;20069;-83
2023/01/26 07:41:59;;;;;;;23.20;3.35;;;2.90;99.90;;;;;;5069081;28;20516;-83
2023/01/26 07:44:24;;;;;;;27.92;4.25;;;2.90;99.90;;;;;;5103868;28;20051;-83
2023/01/26 07:46:50;;;;;;;40.03;4.78;;;2.90;99.90;;;;;;5104137;28;20047;-83
2023/01/26 07:49:16;;;;;;;38.78;4.50;;;2.80;99.90;;;;;;5085893;28;20409;-83
2023/01/26 07:51:41;;;;;;;25.88;3.13;;;2.80;99.90;;;;;;5088250;28;20079;-87
2023/01/26 07:54:10;;;;;;;34.25;3.30;;;3.50;99.90;;;;;;5068769;28;20336;-84
2023/01/26 07:56:36;;;;;;;19.55;3.15;;;3.70;99.90;;;;;;5087850;28;20089;-84
2023/01/26 07:59:02;;;;;;;32.72;3.53;;;3.10;99.90;;;;;;5102982;28;20039;-83
2023/01/26 08:01:27;;;;;;;24.55;2.72;;;2.60;99.90;;;;;;5104101;28;20506;-83
2023/01/26 08:03:53;;;;;;;24.15;3.20;;;2.60;99.90;;;;;;5087445;28;20047;-83
2023/01/26 08:06:19;;;;;;;21.48;2.67;;;2.50;99.90;;;;;;5052332;28;20376;-83
2023/01/26 08:08:49;;;;;;;30.55;3.42;;;2.40;99.90;;;;;;5104765;28;20053;-83
2023/01/26 08:11:17;;;;;;;24.33;3.72;;;3.50;99.90;;;;;;5101760;28;20047;-83
2023/01/26 08:13:42;;;;;;;36.97;3.75;;;2.30;99.90;;;;;;5105286;28;20052;-83
2023/01/26 08:16:13;;;;;;;29.02;3.20;;;2.30;99.90;;;;;;5102172;28;20092;-83
2023/01/26 08:18:41;;;;;;;29.00;4.03;;;3.50;99.90;;;;;;5103752;28;20052;-83
2023/01/26 08:21:07;;;;;;;23.77;2.80;;;2.10;99.90;;;;;;5086958;28;20039;-83
2023/01/26 08:23:33;;;;;;;17.15;2.42;;;2.90;99.90;;;;;;5102676;28;20062;-83
2023/01/26 08:26:04;;;;;;;25.65;2.83;;;2.80;99.90;;;;;;5104379;28;20487;-83
2023/01/26 08:28:29;;;;;;;31.60;3.55;;;2.00;99.90;;;;;;5101940;28;20032;-83
2023/01/26 08:30:55;;;;;;;20.58;2.75;;;2.00;99.90;;;;;;5087380;28;20398;-83
2023/01/26 08:33:22;;;;;;;25.70;4.88;;;3.20;99.90;;;;;;5068487;28;20054;-83
2023/01/26 08:35:48;;;;;;;22.17;3.15;;;3.20;99.90;;;;;;5086670;28;20550;-83
2023/01/26 08:38:14;;;;;;;30.35;4.88;;;2.00;99.90;;;;;;5086345;28;20188;-83
2023/01/26 08:40:39;;;;;;;41.92;4.22;;;2.00;99.90;;;;;;5085850;28;20055;-83
2023/01/26 08:43:05;;;;;;;21.73;3.00;;;2.00;99.90;;;;;;5054070;28;20039;-83
2023/01/26 08:45:31;;;;;;;26.58;3.55;;;2.10;99.90;;;;;;5085226;28;20043;-83
2023/01/26 08:47:57;;;;;;;25.40;3.60;;;2.10;99.90;;;;;;5104564;28;20490;-83
2023/01/26 08:50:23;;;;;;;30.30;3.13;;;2.20;99.90;;;;;;5051334;28;20078;-83
2023/01/26 08:52:49;;;;;;;21.80;3.90;;;3.50;99.90;;;;;;5070038;28;20052;-83
2023/01/26 08:55:15;;;;;;;28.25;3.72;;;3.50;99.90;;;;;;5102794;28;20044;-83
2023/01/26 08:57:40;;;;;;;33.05;4.22;;;2.90;99.90;;;;;;5105944;28;20046;-83
2023/01/26 09:00:07;;;;;;;36.42;3.95;;;2.40;99.90;;;;;;5091053;28;20180;-83
2023/01/26 09:02:32;;;;;;;35.35;2.85;;;2.60;99.90;;;;;;5105400;28;20072;-83
2023/01/26 09:04:58;;;;;;;34.88;3.53;;;2.60;99.90;;;;;;5107721;28;20043;-83
2023/01/26 09:07:24;;;;;;;26.38;3.95;;;2.70;99.90;;;;;;5088468;28;20055;-83
2023/01/26 09:09:51;;;;;;;32.60;5.63;;;3.80;99.90;;;;;;5073747;28;20047;-83
2023/01/26 09:12:16;;;;;;;37.65;4.38;;;3.10;99.90;;;;;;5089367;28;20048;-83
2023/01/26 09:14:42;;;;;;;36.45;6.53;;;3.30;99.90;;;;;;5106562;28;20505;-83
2023/01/26 09:17:08;;;;;;;41.35;4.40;;;3.50;99.90;;;;;;5076847;27;20394;-83
2023/01/26 09:19:34;;;;;;;29.60;4.90;;;3.70;99.90;;;;;;5074746;27;20496;-83
2023/01/26 09:21:59;;;;;;;36.08;4.30;;;4.40;99.90;;;;;;5094275;27;20054;-83
2023/01/26 09:24:25;;;;;;;38.25;4.18;;;5.40;99.90;;;;;;5074699;27;20047;-83
2023/01/26 09:26:51;;;;;;;41.28;4.85;;;4.40;99.90;;;;;;5093549;27;20595;-83
2023/01/26 09:29:16;;;;;;;34.28;4.35;;;5.30;99.90;;;;;;5092187;27;20046;-83
2023/01/26 09:31:42;;;;;;;37.08;3.33;;;5.40;99.90;;;;;;5093306;27;20039;-83
2023/01/26 09:34:08;;;;;;;28.15;3.33;;;5.60;99.90;;;;;;5110283;27;20079;-83
2023/01/26 09:36:34;;;;;;;35.83;4.47;;;5.30;99.90;;;;;;5108888;27;20047;-83
2023/01/26 09:38:59;;;;;;;38.90;6.22;;;5.00;99.90;;;;;;5094079;27;20035;-84
2023/01/26 09:41:46;;;;;;;38.80;4.00;;;6.00;99.90;;;;;;5091615;27;20039;-83
2023/01/26 09:44:20;;;;;;;36.63;3.97;;;5.20;99.90;;;;;;5093410;27;20074;-87
2023/01/26 09:47:20;;;;;;;39.28;3.25;;;5.40;99.90;;;;;;5092413;27;20039;-84
2023/01/26 09:50:03;;;;;;;39.67;3.85;;;5.60;99.90;;;;;;5091425;27;20436;-84
2023/01/26 09:52:35;;;;;;;33.60;4.93;;;6.30;99.90;;;;;;5110557;27;20047;-85
2023/01/26 09:55:09;;;;;;;31.58;3.83;;;6.40;99.90;;;;;;5091911;27;20038;-85
2023/01/26 09:57:47;;;;;;;26.48;3.80;;;5.80;99.90;;;;;;5109842;27;20050;-85
2023/01/26 10:00:40;;;;;;;28.27;3.13;;;5.90;99.90;;;;;;5110468;27;20168;-85
2023/01/26 10:03:24;;;;;;;35.15;3.38;;;5.90;99.90;;;;;;5073382;27;20067;-84
2023/01/26 10:06:12;;;;;;;31.58;4.22;;;6.10;99.90;;;;;;5109697;27;20039;-84
2023/01/26 10:08:40;;;;;;;24.45;2.88;;;6.30;99.90;;;;;;5109419;27;20130;-84
2023/01/26 10:11:27;;;;;;;28.65;4.50;;;6.40;99.90;;;;;;5107777;27;20084;-84
2023/01/26 10:14:07;;;;;;;32.38;4.05;;;6.50;99.90;;;;;;5093183;27;20047;-84
2023/01/26 10:16:33;;;;;;;28.42;3.75;;;7.40;99.90;;;;;;5091723;27;20555;-84
2023/01/26 10:19:30;;;;;;;35.88;3.50;;;6.70;99.90;;;;;;5075231;27;20086;-84
2023/01/26 10:22:02;;;;;;;47.03;4.40;;;6.90;99.90;;;;;;5109511;27;20103;-84
2023/01/26 10:24:28;;;;;;;32.72;3.92;;;7.00;99.90;;;;;;5090182;27;20498;-85
2023/01/26 10:26:57;;;;;;;35.03;4.07;;;7.70;99.90;;;;;;5093061;27;20054;-84
2023/01/26 10:29:22;;;;;;;45.50;3.78;;;8.50;99.90;;;;;;5107797;27;20483;-84
2023/01/26 10:31:48;;;;;;;29.85;3.17;;;7.30;99.90;;;;;;5092759;27;20043;-84
2023/01/26 10:34:25;;;;;;;23.55;3.17;;;7.40;99.90;;;;;;5109386;27;20437;-84
2023/01/26 10:36:57;;;;;;;29.73;2.92;;;7.40;99.90;;;;;;5090361;27;20074;-83
2023/01/26 10:39:22;;;;;;;26.35;2.83;;;7.40;99.90;;;;;;5110300;27;20047;-84
2023/01/26 10:42:02;;;;;;;20.77;2.97;;;7.30;99.90;;;;;;5090903;27;20054;-84
2023/01/26 10:44:38;;;;;;;24.83;4.00;;;8.10;99.90;;;;;;5110646;27;20131;-84
2023/01/26 10:47:12;;;;;;;31.67;3.45;;;7.40;99.90;;;;;;5110924;27;20431;-85
2023/01/26 10:49:38;;;;;;;29.67;2.78;;;7.50;99.90;;;;;;5109601;27;20482;-84
2023/01/26 10:52:24;;;;;;;26.77;2.75;;;7.60;99.90;;;;;;5097147;27;20143;-84
2023/01/26 10:55:19;;;;;;;22.63;2.72;;;7.80;99.90;;;;;;5109333;27;20498;-85
2023/01/26 10:57:44;;;;;;;23.13;5.38;;;7.20;99.90;;;;;;5110554;27;20090;-85
2023/01/26 11:00:32;;;;;;;21.48;2.53;;;8.20;99.90;;;;;;5111682;27;20035;-85
2023/01/26 11:03:18;;;;;;;22.27;2.70;;;8.10;99.90;;;;;;5106890;27;20054;-84
2023/01/26 11:05:46;;;;;;;20.67;2.72;;;8.00;99.90;;;;;;5109360;27;20051;-83
2023/01/26 11:08:42;;;;;;;25.35;3.78;;;7.90;99.90;;;;;;5090430;27;20050;-84
2023/01/26 11:11:28;;;;;;;18.88;3.33;;;7.80;99.90;;;;;;5052910;27;20122;-84
2023/01/26 11:14:13;;;;;;;22.60;2.42;;;8.60;99.90;;;;;;5075599;27;20496;-84
2023/01/26 11:16:55;;;;;;;19.52;2.58;;;7.90;99.90;;;;;;5107376;27;20046;-84
2023/01/26 11:19:46;;;;;;;25.90;3.50;;;8.00;99.90;;;;;;5107150;27;20342;-84
2023/01/26 11:22:24;;;;;;;17.92;2.40;;;8.30;99.90;;;;;;5109201;27;20478;-84
2023/01/26 11:25:08;;;;;;;14.80;2.80;;;8.40;99.90;;;;;;5089198;27;20097;-84
2023/01/26 11:27:42;;;;;;;17.45;1.80;;;8.60;99.90;;;;;;5108038;27;20047;-85
2023/01/26 11:30:23;;;;;;;11.02;1.85;;;8.70;99.90;;;;;;5091509;27;20039;-85
2023/01/26 11:33:03;;;;;;;14.90;1.95;;;8.70;99.90;;;;;;5105765;27;20486;-85
2023/01/26 11:35:53;;;;;;;13.75;2.10;;;8.80;99.90;;;;;;5091645;27;20482;-85
2023/01/26 11:38:24;;;;;;;13.23;1.95;;;9.00;99.90;;;;;;5090615;27;20551;-85
2023/01/26 11:41:22;;;;;;;12.30;1.45;;;8.90;99.90;;;;;;5090231;27;20068;-85
2023/01/26 11:44:22;;;;;;;11.57;2.30;;;8.80;99.90;;;;;;5108771;27;20130;-85
2023/01/26 11:47:11;;;;;;;14.98;1.85;;;9.00;99.90;;;;;;5090023;27;20051;-84
2023/01/26 11:49:50;;;;;;;12.63;1.38;;;8.50;99.90;;;;;;5042320;27;20050;-86
2023/01/26 11:52:37;;;;;;;14.15;1.55;;;8.70;99.90;;;;;;5091404;27;20494;-85
2023/01/26 11:55:15;;;;;;;13.25;1.70;;;8.40;99.90;;;;;;5089717;27;20549;-85
2023/01/26 11:57:53;;;;;;;20.08;1.90;;;8.30;99.90;;;;;;5090572;27;20134;-85
2023/01/26 12:00:32;;;;;;;16.75;2.60;;;8.30;99.90;;;;;;5109024;28;20054;-85
2023/01/26 12:03:04;;;;;;;21.38;2.03;;;8.30;99.90;;;;;;5088488;28;20039;-85
2023/01/26 12:05:52;;;;;;;10.63;2.08;;;8.30;99.90;;;;;;5091073;28;20091;-85
2023/01/26 12:08:41;;;;;;;15.23;1.88;;;8.30;99.90;;;;;;5089816;28;20039;-85
2023/01/26 12:11:27;;;;;;;11.35;1.77;;;8.30;99.90;;;;;;5089138;28;20051;-85
2023/01/26 12:14:01;;;;;;;19.15;2.17;;;8.40;99.90;;;;;;5091210;28;20039;-85
2023/01/26 12:16:42;;;;;;;21.63;3.13;;;8.50;99.90;;;;;;5089278;28;20043;-85
2023/01/26 12:19:14;;;;;;;16.65;1.38;;;8.50;99.90;;;;;;5103297;28;20087;-85
2023/01/26 12:21:44;;;;;;;22.20;2.63;;;9.50;99.90;;;;;;5104481;28;20483;-85
2023/01/26 12:24:34;;;;;;;19.98;2.65;;;9.40;99.90;;;;;;5085167;28;20042;-85
2023/01/26 12:27:03;;;;;;;20.20;1.98;;;8.50;99.90;;;;;;5087380;28;20047;-85
2023/01/26 12:30:02;;;;;;;16.95;2.03;;;8.50;99.90;;;;;;5102390;28;20036;-86
2023/01/26 12:32:28;;;;;;;39.55;3.45;;;8.40;99.90;;;;;;5093277;28;20044;-86
2023/01/26 12:34:54;;;;;;;28.25;2.22;;;8.40;99.90;;;;;;5075527;28;20170;-85
2023/01/26 12:37:19;;;;;;;14.18;1.52;;;8.40;99.90;;;;;;5089060;28;20101;-85
2023/01/26 12:39:50;;;;;;;25.13;2.17;;;8.50;99.90;;;;;;5091630;28;20058;-85
2023/01/26 12:42:34;;;;;;;13.73;2.08;;;8.40;99.90;;;;;;5105902;28;20587;-85
2023/01/26 12:45:00;;;;;;;14.48;1.23;;;8.40;99.90;;;;;;5107235;28;20040;-85
2023/01/26 12:47:26;;;;;;;11.02;1.52;;;8.40;99.90;;;;;;5108701;28;20104;-85
2023/01/26 12:50:13;;;;;;;9.20;1.30;;;8.40;99.90;;;;;;5106375;28;20048;-85
2023/01/26 12:52:57;;;;;;;9.93;1.08;;;8.30;99.90;;;;;;5090999;28;20134;-85
2023/01/26 12:55:29;;;;;;;15.68;3.28;;;8.30;99.90;;;;;;5089580;28;20482;-85
2023/01/26 12:58:03;;;;;;;11.07;1.30;;;8.40;99.90;;;;;;5107069;28;20491;-86
2023/01/26 13:00:34;;;;;;;12.85;1.20;;;8.30;99.90;;;;;;5108412;28;20047;-86
2023/01/26 13:03:17;;;;;;;9.73;1.40;;;8.40;99.90;;;;;;5088581;28;20100;-84
2023/01/26 13:06:23;;;;;;;6.97;1.10;;;8.30;99.90;;;;;;5108124;28;20469;-85
2023/01/26 13:08:56;;;;;;;6.70;1.08;;;8.30;99.90;;;;;;4993613;28;20080;-83
2023/01/26 13:11:40;;;;;;;;;;;8.30;99.90;;;;;;5007771;28;20049;-83
2023/01/26 13:14:26;;;;;;;7.75;0.95;;;8.20;99.90;;;;;;5072784;28;19939;-83
2023/01/26 13:16:52;;;;;;;7.13;0.75;;;8.20;99.90;;;;;;5055353;28;20399;-82
2023/01/26 13:19:43;;;;;;;15.60;1.27;;;8.20;99.90;;;;;;5089640;28;20055;-83
2023/01/26 13:22:18;;;;;;;7.78;0.73;;;8.10;99.90;;;;;;5090830;28;20047;-82
2023/01/26 13:24:51;;;;;;;18.38;2.25;;;8.30;99.90;;;;;;5104691;28;20051;-83
2023/01/26 13:27:30;;;;;;;13.57;1.48;;;8.10;99.90;;;;;;5107107;28;20502;-83
2023/01/26 13:29:57;;;;;;;14.48;2.63;;;8.00;99.90;;;;;;5089178;28;20044;-83
2023/01/26 13:32:22;;;;;;;12.95;1.58;;;8.80;99.90;;;;;;5088820;28;20044;-83
2023/01/26 13:34:59;;;;;;;12.95;1.40;;;8.00;99.90;;;;;;5091075;28;20047;-83
2023/01/26 13:37:55;;;;;;;8.20;0.95;;;8.00;99.90;;;;;;5105259;28;20059;-84
2023/01/26 13:40:32;;;;;;;11.57;1.70;;;8.10;99.90;;;;;;5107003;28;20047;-84
2023/01/26 13:43:26;;;;;;;19.65;1.50;;;7.90;99.90;;;;;;5106202;28;20418;-84
2023/01/26 13:46:09;;;;;;;14.45;1.92;;;7.90;99.90;;;;;;5104797;28;20036;-83
2023/01/26 13:48:38;;;;;;;;;;;7.90;99.90;;;;;;5107942;28;20100;-83
2023/01/26 13:51:04;;;;;;;16.05;1.52;;;7.90;99.90;;;;;;5105525;28;20298;-83
2023/01/26 13:53:49;;;;;;;18.05;2.40;;;7.90;99.90;;;;;;5089173;28;20040;-83
2023/01/26 13:56:24;;;;;;;19.60;2.05;;;7.80;99.90;;;;;;5107184;28;20051;-83